ROMMA est une association bénévole à but non lucratif. Votre soutien est indispensable : ADHERER à ROMMA ou FAIRE un DON

Miribel-les-Echelles - (38, Isère)

Massif de la Chartreuse (760 m)   Longitude: 05° 41' 54'' E   Latitude: 45° 26' 40'' N Station partenaire n°22
 

Détail journalier du     <<     >>

Température Precipitation Humidité Pression Vent Dir Rafale Dir. rafale Ensol.
Heure (°C) (mm) (%) (hPa) (km/h) (km/h) (min)
01:00 13.7094101805SE0
02:00 13.809510183SE15SSE0
03:00 13.409510177SSO18SSE0
04:00 13.3095101611SSO24SO0
05:00 13.309610169SSE26S0
06:00 13.209610168SSE21SSE0
07:00 12.8096101611S27SO0
08:00 12.7096101610SSO29SO0
09:00 12.809610167SSE18SSE0
10:00 14.808110166S19SO60
11:00 16.906610167S23SSE60
12:00 17.606510166ENE24OSO60
13:00 18.406910167S23OSO60
14:00 19.306510153SE11SSE60
15:00 19.607010142E13SSE60
16:00 19.707110126S19SSE60
17:00 19.407010129OSO24O60
18:00 17.9076101211OSO26SO30
19:00 17.9074101213SO26SO30
20:00 17.3077101214SO34SO0
21:00 17.6073101215SO31SO0
22:00 18.1069101211SO27S0
23:00 17.806810116SO24SO0
minuit 18.406310108S27S0

Graphique du 14-10-2019

 

Serveur OMMA